Time;durP1;ratioP1;P1;durP2;ratioP2;P2;SDS_P1;SDS_P2;PMS_P1;PMS_P2;Temp;Humidity;BMP_temperature;BMP_pressure;BME280_temperature;BME280_humidity;BME280_pressure;Samples;Min_cycle;Max_cycle;Signal;HPM_P1;HPM_P2
2020/12/13 00:00:41;;;;;;;9.60;4.90;;;7.40;99.90;;;;;;5074992;28;20445;-71
2020/12/13 00:03:08;;;;;;;4.93;4.00;;;7.50;99.90;;;;;;5078152;28;20543;-72
2020/12/13 00:05:34;;;;;;;6.83;4.43;;;7.60;99.90;;;;;;5073106;28;20889;-71
2020/12/13 00:08:02;;;;;;;6.37;5.20;;;7.50;99.90;;;;;;5076488;28;20482;-72
2020/12/13 00:10:28;;;;;;;5.63;4.90;;;7.40;99.90;;;;;;5078979;28;20541;-71
2020/12/13 00:12:54;;;;;;;9.43;4.60;;;7.50;99.90;;;;;;5072394;28;21076;-71
2020/12/13 00:15:21;;;;;;;5.43;4.47;;;7.50;99.90;;;;;;5077007;28;20433;-71
2020/12/13 00:17:47;;;;;;;5.77;4.30;;;7.50;99.90;;;;;;5074917;28;20523;-71
2020/12/13 00:20:14;;;;;;;5.27;4.20;;;7.50;99.90;;;;;;5083544;28;20459;-71
2020/12/13 00:22:41;;;;;;;4.90;3.83;;;7.60;99.90;;;;;;5074412;28;20484;-72
2020/12/13 00:25:08;;;;;;;6.23;4.90;;;7.50;99.90;;;;;;5078151;28;20453;-71
2020/12/13 00:27:35;;;;;;;4.50;4.10;;;7.50;99.90;;;;;;5081745;28;20445;-71
2020/12/13 00:30:01;;;;;;;8.90;5.10;;;7.60;99.90;;;;;;5083662;28;20519;-71
2020/12/13 00:32:29;;;;;;;8.57;5.47;;;7.50;99.90;;;;;;5075521;28;20516;-71
2020/12/13 00:34:55;;;;;;;8.10;5.20;;;7.50;99.90;;;;;;5065299;28;20446;-71
2020/12/13 00:37:22;;;;;;;13.70;6.53;;;7.50;99.90;;;;;;5077937;28;20452;-71
2020/12/13 00:39:48;;;;;;;6.43;4.90;;;7.50;99.90;;;;;;5074459;28;21030;-71
2020/12/13 00:42:16;;;;;;;9.80;6.07;;;7.50;99.90;;;;;;5081645;28;21004;-71
2020/12/13 00:44:42;;;;;;;5.60;4.70;;;7.50;99.90;;;;;;5079662;28;20937;-71
2020/12/13 00:47:09;;;;;;;7.73;5.90;;;7.50;99.90;;;;;;5081001;28;20864;-71
2020/12/13 00:49:35;;;;;;;7.30;5.43;;;7.50;99.90;;;;;;5075158;28;20458;-71
2020/12/13 00:52:02;;;;;;;4.77;4.03;;;7.50;99.90;;;;;;5079924;28;20576;-71
2020/12/13 00:54:29;;;;;;;4.60;4.07;;;7.40;99.90;;;;;;5077525;28;20473;-71
2020/12/13 00:56:55;;;;;;;10.07;4.70;;;7.40;99.90;;;;;;5057487;28;20584;-70
2020/12/13 00:59:23;;;;;;;8.03;4.80;;;7.40;99.90;;;;;;5077605;28;20445;-71
2020/12/13 01:01:50;;;;;;;6.87;5.60;;;7.50;99.90;;;;;;5071337;28;20454;-70
2020/12/13 01:04:16;;;;;;;5.03;4.47;;;7.40;99.90;;;;;;5086000;28;20445;-70
2020/12/13 01:06:42;;;;;;;9.70;6.73;;;7.40;99.90;;;;;;5075996;28;20562;-71
2020/12/13 01:09:09;;;;;;;6.27;5.10;;;7.60;99.90;;;;;;5074297;28;20457;-71
2020/12/13 01:11:36;;;;;;;6.30;5.07;;;7.60;99.90;;;;;;5081065;28;20989;-71
2020/12/13 01:14:03;;;;;;;6.13;4.80;;;7.70;99.90;;;;;;5070477;28;20524;-72
2020/12/13 01:16:31;;;;;;;5.03;4.10;;;7.80;99.90;;;;;;5078605;28;20531;-70
2020/12/13 01:18:59;;;;;;;9.33;4.30;;;7.80;99.90;;;;;;5078025;28;20465;-70
2020/12/13 01:21:27;;;;;;;4.10;3.70;;;7.80;99.90;;;;;;5083239;28;20473;-72
2020/12/13 01:23:54;;;;;;;5.30;3.93;;;7.90;99.90;;;;;;5074899;28;20970;-72
2020/12/13 01:26:24;;;;;;;4.30;3.80;;;7.90;99.90;;;;;;5077863;28;20987;-70
2020/12/13 01:28:52;;;;;;;5.30;4.23;;;7.90;99.90;;;;;;5075310;28;20457;-71
2020/12/13 01:31:20;;;;;;;4.90;4.50;;;7.90;99.90;;;;;;5084717;28;20562;-70
2020/12/13 01:33:48;;;;;;;5.00;3.50;;;7.90;99.90;;;;;;5077239;28;20459;-72
2020/12/13 01:36:16;;;;;;;4.87;3.53;;;8.00;99.90;;;;;;5070545;28;20533;-71
2020/12/13 01:38:43;;;;;;;4.80;3.53;;;8.00;99.90;;;;;;5075997;28;20491;-71
2020/12/13 01:41:09;;;;;;;7.00;4.43;;;8.00;99.90;;;;;;5072038;28;20876;-71
2020/12/13 01:43:36;;;;;;;7.17;3.20;;;7.80;99.90;;;;;;5081042;28;20534;-70
2020/12/13 01:46:04;;;;;;;3.60;2.80;;;7.80;99.90;;;;;;5083742;28;20452;-70
2020/12/13 01:48:31;;;;;;;3.47;2.77;;;7.60;99.90;;;;;;5074128;28;20448;-71
2020/12/13 01:51:08;;;;;;;5.17;3.60;;;7.60;99.90;;;;;;5076831;28;20550;-70
2020/12/13 01:53:37;;;;;;;5.00;4.03;;;7.60;99.90;;;;;;5084004;28;20525;-70
2020/12/13 01:56:04;;;;;;;9.53;5.20;;;7.60;99.90;;;;;;5072949;28;20468;-70
2020/12/13 01:58:36;;;;;;;6.23;4.90;;;7.50;99.90;;;;;;5076398;28;20491;-71
2020/12/13 02:01:05;;;;;;;5.43;4.10;;;7.50;99.90;;;;;;5070953;28;20838;-72
2020/12/13 02:03:37;;;;;;;4.23;3.80;;;7.50;99.90;;;;;;5078738;28;20543;-70
2020/12/13 02:06:12;;;;;;;5.73;4.03;;;7.50;99.90;;;;;;5078914;28;20445;-72
2020/12/13 02:08:40;;;;;;;4.43;4.03;;;7.40;99.90;;;;;;5080951;28;20552;-71
2020/12/13 02:11:07;;;;;;;4.60;3.53;;;7.40;99.90;;;;;;5091355;28;20465;-71
2020/12/13 02:13:34;;;;;;;5.03;3.57;;;7.30;99.90;;;;;;5077770;28;20536;-71
2020/12/13 02:16:00;;;;;;;5.77;3.87;;;7.20;99.90;;;;;;5085009;28;20442;-70
2020/12/13 02:18:27;;;;;;;4.73;3.30;;;7.30;99.90;;;;;;5091467;28;20464;-71
2020/12/13 02:20:54;;;;;;;3.90;3.50;;;7.30;99.90;;;;;;5079857;28;20448;-71
2020/12/13 02:23:22;;;;;;;6.30;3.60;;;7.40;99.90;;;;;;5077677;28;20495;-71
2020/12/13 02:25:49;;;;;;;5.43;3.87;;;7.30;99.90;;;;;;5079111;28;20484;-70
2020/12/13 02:28:15;;;;;;;6.07;3.40;;;7.30;99.90;;;;;;5084712;28;20479;-71
2020/12/13 02:30:42;;;;;;;4.07;2.97;;;7.30;99.90;;;;;;5080357;28;20544;-70
2020/12/13 02:33:09;;;;;;;3.77;3.10;;;7.30;99.90;;;;;;5077319;28;20571;-71
2020/12/13 02:35:35;;;;;;;4.20;3.80;;;7.30;99.90;;;;;;5077803;28;20442;-71
2020/12/13 02:38:02;;;;;;;3.93;3.00;;;7.20;99.90;;;;;;5076248;28;21005;-71
2020/12/13 02:40:29;;;;;;;2.80;2.50;;;7.30;99.90;;;;;;5077370;28;20536;-71
2020/12/13 02:42:55;;;;;;;3.80;3.20;;;7.30;99.90;;;;;;5076827;28;20532;-71
2020/12/13 02:45:22;;;;;;;3.63;2.43;;;7.30;99.90;;;;;;5077581;28;20879;-71
2020/12/13 02:47:48;;;;;;;4.93;3.47;;;7.30;99.90;;;;;;5077118;28;20964;-71
2020/12/13 02:50:15;;;;;;;3.53;2.90;;;7.30;99.90;;;;;;5076772;28;20528;-71
2020/12/13 02:52:41;;;;;;;3.93;3.03;;;7.30;99.90;;;;;;5077476;28;20580;-71
2020/12/13 02:55:07;;;;;;;3.43;2.70;;;7.30;99.90;;;;;;5076598;28;20541;-71
2020/12/13 02:57:35;;;;;;;3.13;2.80;;;7.40;99.90;;;;;;5076872;28;20473;-71
2020/12/13 03:00:01;;;;;;;3.83;2.47;;;7.40;99.90;;;;;;5076735;28;20524;-71
2020/12/13 03:02:27;;;;;;;4.37;3.00;;;7.40;99.90;;;;;;5076811;28;20452;-71
2020/12/13 03:04:54;;;;;;;4.23;3.30;;;7.40;99.90;;;;;;5076681;28;20521;-71
2020/12/13 03:07:20;;;;;;;2.83;2.63;;;7.40;99.90;;;;;;5077588;28;20479;-71
2020/12/13 03:09:46;;;;;;;5.83;3.00;;;7.40;99.90;;;;;;5076737;28;20541;-71
2020/12/13 03:12:13;;;;;;;3.40;3.10;;;7.50;99.90;;;;;;5089904;28;20562;-73
2020/12/13 03:14:40;;;;;;;4.17;3.00;;;7.50;99.90;;;;;;5087680;28;20556;-73
2020/12/13 03:17:07;;;;;;;4.13;3.20;;;7.40;99.90;;;;;;5076557;28;20532;-73
2020/12/13 03:19:33;;;;;;;3.27;2.90;;;7.30;99.90;;;;;;5073047;28;20884;-72
2020/12/13 03:22:00;;;;;;;3.33;2.77;;;7.30;99.90;;;;;;5073456;28;20548;-71
2020/12/13 03:24:26;;;;;;;4.07;2.93;;;7.20;99.90;;;;;;5072643;28;20536;-71
2020/12/13 03:26:53;;;;;;;6.63;3.20;;;7.20;99.90;;;;;;5073077;28;20528;-70
2020/12/13 03:29:19;;;;;;;3.60;3.03;;;7.20;99.90;;;;;;5073276;28;20450;-71
2020/12/13 03:31:47;;;;;;;4.00;3.67;;;7.10;99.90;;;;;;5074059;28;20568;-70
2020/12/13 03:34:14;;;;;;;5.00;3.20;;;7.10;99.90;;;;;;5073438;28;20806;-71
2020/12/13 03:36:40;;;;;;;2.87;2.10;;;7.10;99.90;;;;;;5073716;28;20452;-71
2020/12/13 03:39:06;;;;;;;3.97;3.40;;;7.10;99.90;;;;;;5072235;28;20543;-71
2020/12/13 03:41:33;;;;;;;3.40;3.10;;;7.10;99.90;;;;;;5073739;28;20556;-70
2020/12/13 03:43:59;;;;;;;4.90;2.63;;;7.20;99.90;;;;;;5073341;28;20442;-71
2020/12/13 03:46:25;;;;;;;3.93;2.60;;;7.10;99.90;;;;;;5073598;28;20529;-70
2020/12/13 03:48:53;;;;;;;3.23;2.93;;;7.20;99.90;;;;;;5072803;28;20545;-70
2020/12/13 03:51:19;;;;;;;4.30;3.20;;;7.20;99.90;;;;;;5073270;28;20507;-71
2020/12/13 03:53:45;;;;;;;5.43;3.53;;;7.20;99.90;;;;;;5073513;28;20446;-70
2020/12/13 03:56:12;;;;;;;3.20;2.77;;;7.10;99.90;;;;;;5072328;28;20453;-70
2020/12/13 03:58:38;;;;;;;4.40;3.10;;;7.10;99.90;;;;;;5072806;28;20445;-71
2020/12/13 04:01:05;;;;;;;2.77;2.57;;;7.20;99.90;;;;;;5072430;28;20456;-71
2020/12/13 04:03:31;;;;;;;2.87;2.57;;;7.10;99.90;;;;;;5073339;28;20540;-71
2020/12/13 04:05:59;;;;;;;3.33;2.90;;;7.10;99.90;;;;;;5071946;28;20528;-71
2020/12/13 04:08:25;;;;;;;5.23;2.90;;;7.10;99.90;;;;;;5073043;28;20496;-71
2020/12/13 04:10:51;;;;;;;3.73;3.00;;;7.10;99.90;;;;;;5072186;28;20446;-71
2020/12/13 04:13:18;;;;;;;3.37;3.00;;;7.10;99.90;;;;;;5073160;28;20564;-71
2020/12/13 04:15:44;;;;;;;4.00;2.77;;;7.00;99.90;;;;;;5072908;28;20874;-71
2020/12/13 04:18:10;;;;;;;8.93;2.80;;;7.00;99.90;;;;;;5071883;28;21087;-71
2020/12/13 04:20:37;;;;;;;3.60;2.70;;;7.20;99.90;;;;;;5072326;28;21013;-71
2020/12/13 04:23:04;;;;;;;3.00;2.70;;;7.20;99.90;;;;;;5071797;28;21007;-71
2020/12/13 04:25:30;;;;;;;3.97;3.03;;;7.20;99.90;;;;;;5072872;28;20812;-71
2020/12/13 04:27:57;;;;;;;4.10;2.53;;;7.30;99.90;;;;;;5071814;28;20541;-70
2020/12/13 04:30:23;;;;;;;3.23;2.50;;;7.20;99.90;;;;;;5072441;28;20540;-71
2020/12/13 04:32:50;;;;;;;5.70;2.80;;;7.20;99.90;;;;;;5072848;28;20564;-71
2020/12/13 04:35:17;;;;;;;4.10;3.60;;;7.10;99.90;;;;;;5072186;28;20450;-71
2020/12/13 04:37:43;;;;;;;4.03;2.60;;;7.10;99.90;;;;;;5072032;28;20449;-71
2020/12/13 04:40:10;;;;;;;2.80;2.60;;;7.20;99.90;;;;;;5071908;28;20544;-71
2020/12/13 04:42:38;;;;;;;4.00;3.13;;;7.20;99.90;;;;;;5072249;28;20453;-71
2020/12/13 04:45:06;;;;;;;5.53;3.00;;;7.10;99.90;;;;;;5071474;28;20449;-71
2020/12/13 04:47:33;;;;;;;3.33;2.37;;;7.10;99.90;;;;;;5071481;28;20478;-71
2020/12/13 04:50:02;;;;;;;3.93;3.53;;;7.20;99.90;;;;;;5071947;28;20521;-71
2020/12/13 04:52:29;;;;;;;5.17;2.83;;;7.30;99.90;;;;;;5072445;28;21071;-71
2020/12/13 04:54:56;;;;;;;5.23;2.83;;;7.30;99.90;;;;;;5071486;28;20808;-71
2020/12/13 04:57:23;;;;;;;7.30;3.20;;;7.40;99.90;;;;;;5071348;28;20456;-71
2020/12/13 04:59:51;;;;;;;3.23;2.93;;;7.30;99.90;;;;;;5071847;28;20448;-71
2020/12/13 05:02:18;;;;;;;3.07;2.77;;;7.30;99.90;;;;;;5072038;28;20450;-71
2020/12/13 05:04:45;;;;;;;3.97;3.10;;;7.20;99.90;;;;;;5072313;28;20805;-71
2020/12/13 05:07:11;;;;;;;2.90;2.27;;;7.20;99.90;;;;;;5071454;28;20956;-70
2020/12/13 05:09:39;;;;;;;3.53;2.60;;;7.20;99.90;;;;;;5071428;28;20532;-74
2020/12/13 05:12:06;;;;;;;7.30;3.30;;;7.10;99.90;;;;;;5071267;28;20473;-70
2020/12/13 05:14:33;;;;;;;3.20;2.60;;;7.10;99.90;;;;;;5071660;28;20537;-72
2020/12/13 05:17:10;;;;;;;3.83;3.10;;;7.10;99.90;;;;;;5071332;28;20520;-72
2020/12/13 05:19:38;;;;;;;4.60;2.87;;;7.10;99.90;;;;;;5071695;28;20473;-72
2020/12/13 05:22:06;;;;;;;4.07;2.97;;;7.00;99.90;;;;;;5070375;28;20457;-71
2020/12/13 05:24:34;;;;;;;4.43;3.17;;;7.10;99.90;;;;;;5071157;28;20962;-73
2020/12/13 05:27:01;;;;;;;3.63;3.03;;;7.10;99.90;;;;;;5070474;28;20441;-72
2020/12/13 05:29:31;;;;;;;3.60;2.47;;;7.10;99.90;;;;;;5071103;28;21012;-73
2020/12/13 05:32:10;;;;;;;5.47;4.37;;;7.00;99.90;;;;;;5070100;28;20481;-71
2020/12/13 05:34:39;;;;;;;2.90;2.60;;;7.10;99.90;;;;;;5061607;28;20437;-72
2020/12/13 05:37:07;;;;;;;3.07;2.67;;;7.20;99.90;;;;;;5088115;28;20441;-71
2020/12/13 05:39:37;;;;;;;4.60;2.73;;;7.30;99.90;;;;;;5074589;28;20446;-71
2020/12/13 05:42:03;;;;;;;5.23;2.70;;;7.20;99.90;;;;;;5070347;28;20447;-71
2020/12/13 05:44:51;;;;;;;2.63;2.30;;;7.30;99.90;;;;;;5071693;28;20876;-72
2020/12/13 05:47:25;;;;;;;3.17;2.63;;;7.30;99.90;;;;;;5071542;28;20438;-72
2020/12/13 05:50:12;;;;;;;2.87;2.60;;;7.40;99.90;;;;;;5071052;28;20450;-70
2020/12/13 05:52:43;;;;;;;2.97;2.60;;;7.30;99.90;;;;;;5083419;28;20524;-72
2020/12/13 05:55:10;;;;;;;3.03;2.73;;;7.20;99.90;;;;;;5090759;28;20523;-72
2020/12/13 05:57:37;;;;;;;2.20;2.00;;;7.30;99.90;;;;;;5091322;28;20455;-71
2020/12/13 06:00:05;;;;;;;5.27;2.43;;;7.30;99.90;;;;;;5084837;28;20536;-72
2020/12/13 06:02:33;;;;;;;2.60;2.40;;;7.30;99.90;;;;;;5071279;28;20821;-72
2020/12/13 06:05:04;;;;;;;6.10;2.73;;;7.40;99.90;;;;;;5057950;28;20528;-71
2020/12/13 06:07:34;;;;;;;3.73;3.00;;;7.40;99.90;;;;;;5070744;28;20613;-71
2020/12/13 06:10:05;;;;;;;3.30;2.40;;;7.50;99.90;;;;;;5078837;28;20433;-71
2020/12/13 06:12:32;;;;;;;2.97;2.30;;;7.40;99.90;;;;;;5091567;28;20542;-71
2020/12/13 06:15:01;;;;;;;3.03;2.30;;;7.40;99.90;;;;;;5091106;28;20868;-72
2020/12/13 06:17:28;;;;;;;3.70;2.20;;;7.40;99.90;;;;;;5090727;28;20991;-70
2020/12/13 06:19:56;;;;;;;4.40;3.30;;;7.40;99.90;;;;;;5090905;28;20873;-70
2020/12/13 06:22:23;;;;;;;3.03;2.60;;;7.40;99.90;;;;;;5076664;28;20548;-71
2020/12/13 06:24:50;;;;;;;2.90;2.60;;;7.50;99.90;;;;;;5068128;28;20508;-69
2020/12/13 06:27:20;;;;;;;2.47;2.03;;;7.40;99.90;;;;;;5072590;28;20444;-69
2020/12/13 06:29:46;;;;;;;3.80;2.03;;;7.50;99.90;;;;;;5074635;28;20520;-71
2020/12/13 06:32:13;;;;;;;2.73;2.50;;;7.40;99.90;;;;;;5080732;28;20476;-70
2020/12/13 06:34:43;;;;;;;3.40;3.10;;;7.40;99.90;;;;;;5087296;28;20467;-70
2020/12/13 06:37:12;;;;;;;3.83;2.40;;;7.40;99.90;;;;;;5086969;28;20495;-69
2020/12/13 06:39:41;;;;;;;3.00;2.20;;;7.50;99.90;;;;;;5076371;28;20568;-70
2020/12/13 06:42:08;;;;;;;5.70;2.43;;;7.50;99.90;;;;;;5081468;28;20449;-70
2020/12/13 06:44:34;;;;;;;2.70;2.40;;;7.50;99.90;;;;;;5082877;28;20470;-71
2020/12/13 06:47:01;;;;;;;2.67;2.47;;;7.50;99.90;;;;;;5077206;28;20520;-72
2020/12/13 06:49:28;;;;;;;2.50;2.30;;;7.50;99.90;;;;;;5078824;28;20521;-74
2020/12/13 06:51:54;;;;;;;3.30;2.87;;;7.50;99.90;;;;;;5087271;28;20579;-73
2020/12/13 06:54:23;;;;;;;2.70;2.20;;;7.50;99.90;;;;;;5081409;28;20441;-75
2020/12/13 06:56:50;;;;;;;2.10;1.90;;;7.50;99.90;;;;;;5084842;28;21062;-71
2020/12/13 06:59:20;;;;;;;2.43;2.10;;;7.60;99.90;;;;;;5084987;28;20563;-72
2020/12/13 07:01:47;;;;;;;2.43;2.23;;;7.60;99.90;;;;;;5069253;28;20438;-70
2020/12/13 07:04:34;;;;;;;1.93;1.70;;;7.60;99.90;;;;;;5082864;28;20930;-72
2020/12/13 07:07:04;;;;;;;2.60;1.90;;;7.60;99.90;;;;;;5084644;28;20479;-71
2020/12/13 07:09:31;;;;;;;2.93;1.73;;;7.60;99.90;;;;;;5082990;28;20436;-71
2020/12/13 07:11:59;;;;;;;2.30;2.10;;;7.60;99.90;;;;;;5084947;28;20486;-72
2020/12/13 07:14:28;;;;;;;5.57;1.80;;;7.60;99.90;;;;;;5083638;28;20432;-72
2020/12/13 07:17:01;;;;;;;2.70;2.10;;;7.60;99.90;;;;;;5088046;28;20433;-72
2020/12/13 07:19:30;;;;;;;2.10;1.73;;;7.60;99.90;;;;;;5080887;28;20468;-72
2020/12/13 07:22:02;;;;;;;6.43;2.03;;;7.60;99.90;;;;;;5082510;28;20457;-72
2020/12/13 07:24:28;;;;;;;3.33;2.00;;;7.60;99.90;;;;;;5073544;28;20517;-72
2020/12/13 07:26:56;;;;;;;3.83;2.50;;;7.60;99.90;;;;;;5084311;28;20438;-72
2020/12/13 07:29:23;;;;;;;2.60;2.27;;;7.60;99.90;;;;;;5086759;28;20533;-72
2020/12/13 07:31:49;;;;;;;4.73;2.90;;;7.60;99.90;;;;;;5077496;28;20516;-72
2020/12/13 07:34:15;;;;;;;2.37;1.70;;;7.60;99.90;;;;;;5086740;28;20472;-72
2020/12/13 07:36:42;;;;;;;3.87;2.37;;;7.70;99.90;;;;;;5088635;28;20527;-72
2020/12/13 07:39:13;;;;;;;3.20;2.03;;;7.70;99.90;;;;;;5087998;28;20506;-72
2020/12/13 07:41:39;;;;;;;1.90;1.70;;;7.60;99.90;;;;;;5079913;28;20456;-72
2020/12/13 07:44:08;;;;;;;2.90;2.40;;;7.70;99.90;;;;;;5088060;28;20539;-72
2020/12/13 07:46:35;;;;;;;2.47;2.00;;;7.60;99.90;;;;;;5091212;28;20444;-72
2020/12/13 07:49:07;;;;;;;1.93;1.80;;;7.50;99.90;;;;;;5072732;28;20533;-73
2020/12/13 07:51:37;;;;;;;3.73;2.50;;;7.60;99.90;;;;;;5082693;28;20484;-72
2020/12/13 07:54:11;;;;;;;2.70;2.00;;;7.60;99.90;;;;;;5080191;28;20571;-73
2020/12/13 07:56:37;;;;;;;2.80;2.60;;;7.60;99.90;;;;;;5089807;28;20498;-73
2020/12/13 07:59:13;;;;;;;2.17;1.97;;;7.60;99.90;;;;;;5078224;28;20961;-73
2020/12/13 08:01:41;;;;;;;2.50;1.83;;;7.60;99.90;;;;;;5079048;28;20436;-71
2020/12/13 08:04:07;;;;;;;3.30;2.57;;;7.60;99.90;;;;;;5092643;28;20443;-73
2020/12/13 08:06:34;;;;;;;4.70;2.20;;;7.60;99.90;;;;;;5081093;28;20570;-73
2020/12/13 08:09:06;;;;;;;3.30;2.13;;;7.50;99.90;;;;;;5081612;28;20487;-73
2020/12/13 08:11:33;;;;;;;2.80;2.00;;;7.60;99.90;;;;;;5080643;28;20464;-72
2020/12/13 08:14:00;;;;;;;3.33;1.80;;;7.50;99.90;;;;;;5081400;28;20520;-71
2020/12/13 08:16:28;;;;;;;3.97;2.20;;;7.40;99.90;;;;;;5076819;28;20488;-70
2020/12/13 08:18:59;;;;;;;2.43;2.07;;;7.40;99.90;;;;;;5082882;28;20524;-71
2020/12/13 08:21:34;;;;;;;2.20;1.77;;;7.40;99.90;;;;;;5085780;28;20457;-71
2020/12/13 08:24:03;;;;;;;2.80;2.23;;;7.50;99.90;;;;;;5079470;28;20940;-71
2020/12/13 08:26:31;;;;;;;2.10;1.90;;;7.50;99.90;;;;;;5086520;28;20527;-75
2020/12/13 08:29:00;;;;;;;1.80;1.70;;;7.60;99.90;;;;;;5080596;28;20444;-76
2020/12/13 08:31:29;;;;;;;1.87;1.47;;;7.70;99.90;;;;;;5074698;28;20532;-77
2020/12/13 08:34:03;;;;;;;1.80;1.33;;;7.70;99.90;;;;;;5086382;28;20906;-72
2020/12/13 08:36:30;;;;;;;1.30;1.20;;;7.70;99.90;;;;;;5075552;28;20999;-75
2020/12/13 08:39:06;;;;;;;8.40;5.70;;;7.70;99.90;;;;;;5076851;28;20988;-73
2020/12/13 08:41:33;;;;;;;2.67;2.27;;;7.70;99.90;;;;;;5087431;28;20520;-74
2020/12/13 08:44:00;;;;;;;3.63;1.90;;;7.80;99.90;;;;;;5087477;28;20437;-74
2020/12/13 08:46:33;;;;;;;4.70;2.17;;;7.90;99.90;;;;;;5078408;28;20533;-74
2020/12/13 08:49:00;;;;;;;7.43;1.97;;;8.10;99.90;;;;;;5086764;28;20433;-72
2020/12/13 08:51:28;;;;;;;3.60;2.40;;;8.10;99.90;;;;;;5090729;28;20490;-73
2020/12/13 08:53:59;;;;;;;3.87;2.00;;;8.10;99.90;;;;;;5076624;28;20570;-73
2020/12/13 08:56:36;;;;;;;2.50;1.87;;;8.20;99.90;;;;;;5083060;28;20540;-73
2020/12/13 08:59:04;;;;;;;3.40;2.67;;;8.30;99.90;;;;;;5087856;28;20458;-73
2020/12/13 09:01:34;;;;;;;2.70;2.23;;;8.40;99.90;;;;;;5074380;28;20449;-73
2020/12/13 09:04:00;;;;;;;2.17;1.97;;;8.50;99.90;;;;;;5078790;28;20429;-74
2020/12/13 09:06:28;;;;;;;2.57;1.73;;;8.50;99.90;;;;;;5087585;28;20528;-74
2020/12/13 09:08:55;;;;;;;2.40;1.80;;;8.40;99.90;;;;;;5079359;28;20914;-72
2020/12/13 09:11:31;;;;;;;2.87;2.37;;;8.40;99.90;;;;;;5080606;28;20948;-72
2020/12/13 09:13:57;;;;;;;2.30;2.10;;;8.60;99.90;;;;;;5074334;28;20560;-72
2020/12/13 09:16:28;;;;;;;8.90;6.63;;;8.80;99.90;;;;;;5090867;28;20860;-75
2020/12/13 09:19:09;;;;;;;10.17;7.10;;;8.70;99.90;;;;;;5079268;28;20854;-77
2020/12/13 09:21:57;;;;;;;3.20;2.63;;;8.70;99.90;;;;;;5082159;28;20502;-75
2020/12/13 09:24:26;;;;;;;2.83;2.20;;;8.70;99.90;;;;;;5068364;28;20459;-75
2020/12/13 09:27:00;;;;;;;2.97;2.30;;;8.70;99.90;;;;;;5069449;28;20456;-76
2020/12/13 09:29:27;;;;;;;4.10;2.63;;;8.70;99.90;;;;;;5069257;28;20488;-75
2020/12/13 09:31:53;;;;;;;2.70;1.87;;;8.70;99.90;;;;;;5083031;28;20460;-76
2020/12/13 09:34:22;;;;;;;2.80;2.13;;;8.70;99.90;;;;;;5089226;28;20500;-76
2020/12/13 09:36:49;;;;;;;2.57;2.27;;;8.70;99.90;;;;;;5089379;28;20444;-74
2020/12/13 09:39:15;;;;;;;3.33;2.00;;;8.80;99.90;;;;;;5087428;28;20539;-75
2020/12/13 09:41:42;;;;;;;4.60;1.90;;;8.90;99.90;;;;;;5074606;28;20844;-75
2020/12/13 09:44:08;;;;;;;2.80;2.20;;;8.90;99.90;;;;;;5068228;28;20545;-76
2020/12/13 09:46:35;;;;;;;2.10;1.83;;;8.90;87.90;;;;;;5068104;28;20477;-74
2020/12/13 09:49:01;;;;;;;2.00;1.80;;;9.00;99.90;;;;;;5067985;28;20537;-75
2020/12/13 09:51:29;;;;;;;2.50;2.30;;;9.10;53.10;;;;;;5068279;28;20550;-74
2020/12/13 09:53:55;;;;;;;3.33;3.03;;;9.10;99.00;;;;;;5067489;28;21000;-77
2020/12/13 09:56:22;;;;;;;3.83;2.47;;;9.10;9.80;;;;;;5082465;28;20445;-76
2020/12/13 09:58:48;;;;;;;5.20;2.30;;;9.00;99.90;;;;;;5088823;28;20476;-76
2020/12/13 10:01:15;;;;;;;3.77;2.97;;;9.10;99.90;;;;;;5068544;28;20442;-76
2020/12/13 10:03:44;;;;;;;4.50;2.60;;;9.20;99.90;;;;;;5068657;28;20445;-76
2020/12/13 10:06:45;;;;;;;2.57;2.27;;;9.10;99.90;;;;;;5084772;28;20981;-76
2020/12/13 10:09:12;;;;;;;3.93;2.53;;;9.10;99.90;;;;;;5075071;28;20536;-77
2020/12/13 10:11:40;;;;;;;3.20;2.37;;;9.30;87.80;;;;;;5068388;28;20484;-74
2020/12/13 10:14:08;;;;;;;4.83;2.97;;;9.40;1.00;;;;;;5067772;28;20481;-75
2020/12/13 10:16:35;;;;;;;11.27;6.90;;;9.30;1.00;;;;;;5068585;28;20546;-75
2020/12/13 10:19:01;;;;;;;4.33;2.70;;;9.20;73.60;;;;;;5067206;28;21056;-70
2020/12/13 10:21:30;;;;;;;5.03;2.53;;;9.20;1.00;;;;;;5067865;28;20544;-70
2020/12/13 10:23:57;;;;;;;2.43;2.10;;;9.20;1.00;;;;;;5070051;28;20539;-72
2020/12/13 10:26:26;;;;;;;2.83;2.40;;;9.20;1.00;;;;;;5088091;28;20448;-72
2020/12/13 10:28:53;;;;;;;3.10;2.47;;;9.20;1.00;;;;;;5069305;28;20541;-70
2020/12/13 10:31:25;;;;;;;2.40;2.20;;;9.10;1.00;;;;;;5072072;28;20470;-72
2020/12/13 10:33:52;;;;;;;3.43;2.00;;;9.10;1.00;;;;;;5071294;28;20561;-69
2020/12/13 10:36:18;;;;;;;6.43;2.87;;;9.10;1.00;;;;;;5072084;28;20545;-72
2020/12/13 10:38:44;;;;;;;1.60;1.40;;;9.10;1.00;;;;;;5072352;28;20545;-73
2020/12/13 10:41:11;;;;;;;1.97;1.60;;;9.30;99.90;;;;;;5069603;28;20568;-73
2020/12/13 10:43:38;;;;;;;4.00;1.40;;;9.10;99.90;;;;;;5071738;28;20481;-73
2020/12/13 10:46:05;;;;;;;2.50;1.47;;;9.10;99.90;;;;;;5071295;28;20459;-72
2020/12/13 10:48:32;;;;;;;3.07;1.80;;;9.00;99.90;;;;;;5076944;28;20537;-73
2020/12/13 10:50:59;;;;;;;2.37;1.40;;;9.00;99.90;;;;;;5070830;28;20964;-72
2020/12/13 10:53:26;;;;;;;4.13;1.30;;;9.00;41.60;;;;;;5071384;28;20570;-72
2020/12/13 10:55:52;;;;;;;4.07;1.60;;;9.00;93.00;;;;;;5071306;28;20846;-73
2020/12/13 10:58:19;;;;;;;1.83;1.37;;;9.00;99.90;;;;;;5071753;28;20437;-72
2020/12/13 11:00:46;;;;;;;8.03;2.10;;;8.90;90.20;;;;;;5071915;28;21013;-72
2020/12/13 11:03:13;;;;;;;1.70;1.37;;;8.90;56.90;;;;;;5070764;28;20536;-72
2020/12/13 11:05:39;;;;;;;2.80;1.17;;;8.90;99.90;;;;;;5071662;28;20980;-71
2020/12/13 11:08:06;;;;;;;4.10;1.10;;;9.00;1.00;;;;;;5071049;28;20900;-72
2020/12/13 11:10:32;;;;;;;2.97;1.70;;;9.00;15.00;;;;;;5071373;28;20457;-73
2020/12/13 11:12:58;;;;;;;3.07;1.50;;;9.10;99.90;;;;;;5070487;28;20542;-75
2020/12/13 11:15:25;;;;;;;2.03;1.73;;;9.10;1.00;;;;;;5071659;28;20540;-73
2020/12/13 11:17:52;;;;;;;1.50;1.40;;;9.20;1.00;;;;;;5071183;28;20479;-70
2020/12/13 11:20:19;;;;;;;2.17;1.23;;;9.20;1.00;;;;;;5071280;28;20528;-71
2020/12/13 11:22:45;;;;;;;4.20;1.70;;;9.20;1.00;;;;;;5070529;28;21004;-71
2020/12/13 11:25:12;;;;;;;4.27;1.80;;;9.20;1.00;;;;;;5064359;28;20441;-73
2020/12/13 11:27:38;;;;;;;1.10;1.00;;;9.20;1.00;;;;;;5071430;28;20536;-73
2020/12/13 11:30:06;;;;;;;2.20;1.20;;;9.30;99.90;;;;;;5070196;28;20545;-74
2020/12/13 11:32:33;;;;;;;2.70;1.30;;;9.20;1.00;;;;;;5071125;28;20517;-72
2020/12/13 11:35:00;;;;;;;1.93;1.73;;;9.10;99.90;;;;;;5070205;28;20525;-74
2020/12/13 11:37:26;;;;;;;1.90;1.40;;;9.10;99.90;;;;;;5071000;28;21275;-71
2020/12/13 11:39:53;;;;;;;1.67;1.10;;;9.10;1.00;;;;;;5069138;28;20556;-71
2020/12/13 11:42:20;;;;;;;2.63;1.40;;;9.10;1.00;;;;;;5069881;28;20457;-73
2020/12/13 11:44:47;;;;;;;2.00;1.30;;;9.00;1.00;;;;;;5071054;28;20666;-73
2020/12/13 11:47:13;;;;;;;1.87;1.27;;;9.10;1.00;;;;;;5070781;28;20533;-74
2020/12/13 11:49:40;;;;;;;2.87;1.03;;;9.00;1.00;;;;;;5070787;28;20997;-73
2020/12/13 11:52:07;;;;;;;1.83;1.50;;;9.00;1.00;;;;;;5070138;28;20453;-73
2020/12/13 11:54:33;;;;;;;2.40;1.73;;;9.00;1.00;;;;;;5070814;28;20568;-74
2020/12/13 11:57:00;;;;;;;2.67;1.90;;;8.90;1.00;;;;;;5070007;28;20518;-72
2020/12/13 11:59:28;;;;;;;2.50;1.37;;;8.90;1.00;;;;;;5070303;28;20437;-71
2020/12/13 12:01:55;;;;;;;1.60;1.20;;;8.80;1.00;;;;;;5069971;28;20454;-71
2020/12/13 12:04:22;;;;;;;5.17;1.27;;;8.80;98.70;;;;;;5070778;28;21023;-71
2020/12/13 12:06:49;;;;;;;1.77;1.63;;;8.90;1.00;;;;;;5069797;28;20911;-72
2020/12/13 12:09:17;;;;;;;3.27;1.70;;;9.00;94.90;;;;;;5069895;28;20537;-72
2020/12/13 12:11:43;;;;;;;1.53;1.17;;;8.90;99.90;;;;;;5070134;28;20576;-71
2020/12/13 12:14:10;;;;;;;1.70;1.20;;;9.00;94.20;;;;;;5070211;28;20547;-72
2020/12/13 12:16:38;;;;;;;1.73;1.10;;;9.10;1.00;;;;;;5070414;28;20485;-72
2020/12/13 12:19:04;;;;;;;2.17;1.87;;;9.10;99.90;;;;;;5069217;28;20456;-71
2020/12/13 12:21:33;;;;;;;2.27;1.33;;;9.00;1.00;;;;;;5069444;28;20961;-71
2020/12/13 12:24:00;;;;;;;2.10;1.53;;;8.90;22.40;;;;;;5069260;28;20877;-73
2020/12/13 12:26:30;;;;;;;2.20;1.43;;;8.90;50.70;;;;;;5070373;28;20453;-73
2020/12/13 12:28:57;;;;;;;4.23;1.87;;;9.00;1.00;;;;;;5069376;28;20936;-73
2020/12/13 12:31:24;;;;;;;1.77;1.30;;;9.10;1.00;;;;;;5069758;28;20461;-73
2020/12/13 12:33:51;;;;;;;2.30;1.60;;;9.20;1.00;;;;;;5069653;28;20564;-72
2020/12/13 12:36:19;;;;;;;1.80;1.37;;;9.20;1.00;;;;;;5069960;28;20445;-72
2020/12/13 12:38:46;;;;;;;4.40;1.60;;;9.30;99.90;;;;;;5070167;28;20481;-72
2020/12/13 12:41:13;;;;;;;3.70;1.43;;;9.20;1.00;;;;;;5067549;28;20445;-72
2020/12/13 12:43:41;;;;;;;3.80;1.70;;;9.30;44.10;;;;;;5069835;28;20445;-72
2020/12/13 12:46:07;;;;;;;3.23;1.60;;;9.30;10.40;;;;;;5069532;28;20477;-71
2020/12/13 12:48:34;;;;;;;1.87;1.23;;;9.20;99.90;;;;;;5069465;28;20536;-74
2020/12/13 12:51:02;;;;;;;2.30;1.53;;;9.20;1.00;;;;;;5068480;28;20529;-73
2020/12/13 12:53:28;;;;;;;2.50;1.40;;;9.30;1.00;;;;;;5069006;28;20511;-72
2020/12/13 12:55:55;;;;;;;2.10;1.53;;;9.20;99.90;;;;;;5069211;28;20457;-72
2020/12/13 12:58:22;;;;;;;2.97;1.50;;;9.10;1.00;;;;;;5068947;28;21002;-72
2020/12/13 13:00:53;;;;;;;1.63;1.30;;;9.20;1.00;;;;;;5069689;28;20510;-72